sensor_id;sensor_type;location;lat;lon;timestamp;temperature;humidity
12053;DHT22;6087;48.982;12.064;2022-09-09T00:00:47;17.20;99.90
12053;DHT22;6087;48.982;12.064;2022-09-09T00:03:17;17.20;99.90
12053;DHT22;6087;48.982;12.064;2022-09-09T00:05:52;17.20;99.90
12053;DHT22;6087;48.982;12.064;2022-09-09T00:08:28;17.20;99.90
12053;DHT22;6087;48.982;12.064;2022-09-09T00:11:01;17.20;99.90
12053;DHT22;6087;48.982;12.064;2022-09-09T00:13:36;17.10;99.90
12053;DHT22;6087;48.982;12.064;2022-09-09T00:16:08;17.10;99.90
12053;DHT22;6087;48.982;12.064;2022-09-09T00:18:44;17.10;99.90
12053;DHT22;6087;48.982;12.064;2022-09-09T00:21:14;17.10;99.90
12053;DHT22;6087;48.982;12.064;2022-09-09T00:23:45;17.10;99.90
12053;DHT22;6087;48.982;12.064;2022-09-09T00:26:24;17.10;99.90
12053;DHT22;6087;48.982;12.064;2022-09-09T00:29:03;17.10;99.90
12053;DHT22;6087;48.982;12.064;2022-09-09T00:31:32;17.10;99.90
12053;DHT22;6087;48.982;12.064;2022-09-09T00:34:05;17.10;99.90
12053;DHT22;6087;48.982;12.064;2022-09-09T00:36:36;17.10;99.90
12053;DHT22;6087;48.982;12.064;2022-09-09T00:39:04;17.10;99.90
12053;DHT22;6087;48.982;12.064;2022-09-09T00:41:44;17.10;99.90
12053;DHT22;6087;48.982;12.064;2022-09-09T00:44:27;17.10;99.90
12053;DHT22;6087;48.982;12.064;2022-09-09T00:47:04;17.10;99.90
12053;DHT22;6087;48.982;12.064;2022-09-09T00:49:43;17.10;99.90
12053;DHT22;6087;48.982;12.064;2022-09-09T00:52:23;17.10;99.90
12053;DHT22;6087;48.982;12.064;2022-09-09T00:55:02;17.10;99.90
12053;DHT22;6087;48.982;12.064;2022-09-09T00:57:31;17.00;99.90
12053;DHT22;6087;48.982;12.064;2022-09-09T01:00:17;17.00;99.90
12053;DHT22;6087;48.982;12.064;2022-09-09T01:05:36;17.00;99.90
12053;DHT22;6087;48.982;12.064;2022-09-09T01:08:15;17.00;99.90
12053;DHT22;6087;48.982;12.064;2022-09-09T01:10:50;16.90;99.90
12053;DHT22;6087;48.982;12.064;2022-09-09T01:13:23;16.90;99.90
12053;DHT22;6087;48.982;12.064;2022-09-09T01:15:53;16.90;99.90
12053;DHT22;6087;48.982;12.064;2022-09-09T01:18:23;16.90;99.90
12053;DHT22;6087;48.982;12.064;2022-09-09T01:21:02;16.90;99.90
12053;DHT22;6087;48.982;12.064;2022-09-09T01:24:00;16.90;99.90
12053;DHT22;6087;48.982;12.064;2022-09-09T01:26:33;16.80;99.90
12053;DHT22;6087;48.982;12.064;2022-09-09T01:29:02;16.80;99.90
12053;DHT22;6087;48.982;12.064;2022-09-09T01:31:32;16.80;99.90
12053;DHT22;6087;48.982;12.064;2022-09-09T01:34:01;16.80;99.90
12053;DHT22;6087;48.982;12.064;2022-09-09T01:36:34;16.70;99.90
12053;DHT22;6087;48.982;12.064;2022-09-09T01:39:02;16.70;99.90
12053;DHT22;6087;48.982;12.064;2022-09-09T01:41:31;16.70;99.90
12053;DHT22;6087;48.982;12.064;2022-09-09T01:43:58;16.70;99.90
12053;DHT22;6087;48.982;12.064;2022-09-09T01:46:25;16.70;99.90
12053;DHT22;6087;48.982;12.064;2022-09-09T01:48:55;16.70;99.90
12053;DHT22;6087;48.982;12.064;2022-09-09T01:51:22;16.60;99.90
12053;DHT22;6087;48.982;12.064;2022-09-09T01:53:50;16.60;99.90
12053;DHT22;6087;48.982;12.064;2022-09-09T01:56:29;16.60;99.90
12053;DHT22;6087;48.982;12.064;2022-09-09T01:59:11;16.60;99.90
12053;DHT22;6087;48.982;12.064;2022-09-09T02:01:53;16.60;99.90
12053;DHT22;6087;48.982;12.064;2022-09-09T02:04:36;16.60;99.90
12053;DHT22;6087;48.982;12.064;2022-09-09T02:07:09;16.50;99.90
12053;DHT22;6087;48.982;12.064;2022-09-09T02:09:39;16.60;99.90
12053;DHT22;6087;48.982;12.064;2022-09-09T02:12:13;16.50;99.90
12053;DHT22;6087;48.982;12.064;2022-09-09T02:14:46;16.50;99.90
12053;DHT22;6087;48.982;12.064;2022-09-09T02:17:18;16.50;99.90
12053;DHT22;6087;48.982;12.064;2022-09-09T02:19:48;16.50;99.90
12053;DHT22;6087;48.982;12.064;2022-09-09T02:22:17;16.50;99.90
12053;DHT22;6087;48.982;12.064;2022-09-09T02:24:47;16.50;99.90
12053;DHT22;6087;48.982;12.064;2022-09-09T02:27:16;16.50;99.90
12053;DHT22;6087;48.982;12.064;2022-09-09T02:29:46;16.50;99.90
12053;DHT22;6087;48.982;12.064;2022-09-09T02:32:15;16.50;99.90
12053;DHT22;6087;48.982;12.064;2022-09-09T02:34:46;16.50;99.90
12053;DHT22;6087;48.982;12.064;2022-09-09T02:37:15;16.40;99.90
12053;DHT22;6087;48.982;12.064;2022-09-09T02:39:44;16.40;99.90
12053;DHT22;6087;48.982;12.064;2022-09-09T02:42:11;16.40;99.90
12053;DHT22;6087;48.982;12.064;2022-09-09T02:44:40;16.40;99.90
12053;DHT22;6087;48.982;12.064;2022-09-09T02:47:20;16.40;99.90
12053;DHT22;6087;48.982;12.064;2022-09-09T02:50:00;16.40;99.90
12053;DHT22;6087;48.982;12.064;2022-09-09T02:52:35;16.30;99.90
12053;DHT22;6087;48.982;12.064;2022-09-09T02:55:08;16.40;99.90
12053;DHT22;6087;48.982;12.064;2022-09-09T02:57:38;16.30;99.90
12053;DHT22;6087;48.982;12.064;2022-09-09T03:00:07;16.30;99.90
12053;DHT22;6087;48.982;12.064;2022-09-09T03:02:36;16.30;99.90
12053;DHT22;6087;48.982;12.064;2022-09-09T03:05:05;16.30;99.90
12053;DHT22;6087;48.982;12.064;2022-09-09T03:07:32;16.30;99.90
12053;DHT22;6087;48.982;12.064;2022-09-09T03:09:59;16.30;99.90
12053;DHT22;6087;48.982;12.064;2022-09-09T03:12:26;16.30;99.90
12053;DHT22;6087;48.982;12.064;2022-09-09T03:14:53;16.30;99.90
12053;DHT22;6087;48.982;12.064;2022-09-09T03:17:20;16.20;99.90
12053;DHT22;6087;48.982;12.064;2022-09-09T03:19:48;16.20;99.90
12053;DHT22;6087;48.982;12.064;2022-09-09T03:22:16;16.20;99.90
12053;DHT22;6087;48.982;12.064;2022-09-09T03:24:43;16.20;99.90
12053;DHT22;6087;48.982;12.064;2022-09-09T03:27:09;16.20;99.90
12053;DHT22;6087;48.982;12.064;2022-09-09T03:29:36;16.20;99.90
12053;DHT22;6087;48.982;12.064;2022-09-09T03:32:04;16.20;99.90
12053;DHT22;6087;48.982;12.064;2022-09-09T03:34:31;16.20;99.90
12053;DHT22;6087;48.982;12.064;2022-09-09T03:36:59;16.20;99.90
12053;DHT22;6087;48.982;12.064;2022-09-09T03:39:26;16.20;99.90
12053;DHT22;6087;48.982;12.064;2022-09-09T03:41:54;16.20;99.90
12053;DHT22;6087;48.982;12.064;2022-09-09T03:44:21;16.20;99.90
12053;DHT22;6087;48.982;12.064;2022-09-09T03:46:48;16.20;99.90
12053;DHT22;6087;48.982;12.064;2022-09-09T03:49:15;16.10;99.90
12053;DHT22;6087;48.982;12.064;2022-09-09T03:51:42;16.20;99.90
12053;DHT22;6087;48.982;12.064;2022-09-09T03:54:10;16.20;99.90
12053;DHT22;6087;48.982;12.064;2022-09-09T03:56:37;16.10;99.90
12053;DHT22;6087;48.982;12.064;2022-09-09T03:59:06;16.10;99.90
12053;DHT22;6087;48.982;12.064;2022-09-09T04:01:34;16.10;99.90
12053;DHT22;6087;48.982;12.064;2022-09-09T04:04:01;16.10;99.90
12053;DHT22;6087;48.982;12.064;2022-09-09T04:06:28;16.10;99.90
12053;DHT22;6087;48.982;12.064;2022-09-09T04:08:55;16.00;99.90
12053;DHT22;6087;48.982;12.064;2022-09-09T04:11:24;16.00;99.90
12053;DHT22;6087;48.982;12.064;2022-09-09T04:13:51;16.00;99.90
12053;DHT22;6087;48.982;12.064;2022-09-09T04:16:18;16.00;99.90
12053;DHT22;6087;48.982;12.064;2022-09-09T04:18:46;16.00;99.90
12053;DHT22;6087;48.982;12.064;2022-09-09T04:21:13;16.00;99.90
12053;DHT22;6087;48.982;12.064;2022-09-09T04:23:40;16.00;99.90
12053;DHT22;6087;48.982;12.064;2022-09-09T04:26:07;15.90;99.90
12053;DHT22;6087;48.982;12.064;2022-09-09T04:28:36;15.90;99.90
12053;DHT22;6087;48.982;12.064;2022-09-09T04:31:04;15.90;99.90
12053;DHT22;6087;48.982;12.064;2022-09-09T04:33:32;15.90;99.90
12053;DHT22;6087;48.982;12.064;2022-09-09T04:35:59;15.90;99.90
12053;DHT22;6087;48.982;12.064;2022-09-09T04:38:26;15.90;99.90
12053;DHT22;6087;48.982;12.064;2022-09-09T04:40:53;15.90;99.90
12053;DHT22;6087;48.982;12.064;2022-09-09T04:43:20;15.80;99.90
12053;DHT22;6087;48.982;12.064;2022-09-09T04:45:50;15.80;99.90
12053;DHT22;6087;48.982;12.064;2022-09-09T04:48:17;15.80;99.90
12053;DHT22;6087;48.982;12.064;2022-09-09T04:50:54;15.80;99.90
12053;DHT22;6087;48.982;12.064;2022-09-09T04:53:21;15.80;99.90
12053;DHT22;6087;48.982;12.064;2022-09-09T04:55:48;15.80;99.90
12053;DHT22;6087;48.982;12.064;2022-09-09T04:58:15;15.80;99.90
12053;DHT22;6087;48.982;12.064;2022-09-09T05:00:42;15.80;99.90
12053;DHT22;6087;48.982;12.064;2022-09-09T05:03:11;15.80;99.90
12053;DHT22;6087;48.982;12.064;2022-09-09T05:05:38;15.80;99.90
12053;DHT22;6087;48.982;12.064;2022-09-09T05:08:07;15.70;99.90
12053;DHT22;6087;48.982;12.064;2022-09-09T05:10:37;15.80;99.90
12053;DHT22;6087;48.982;12.064;2022-09-09T05:13:04;15.70;99.90
12053;DHT22;6087;48.982;12.064;2022-09-09T05:15:32;15.80;99.90
12053;DHT22;6087;48.982;12.064;2022-09-09T05:17:59;15.80;99.90
12053;DHT22;6087;48.982;12.064;2022-09-09T05:20:29;15.80;99.90
12053;DHT22;6087;48.982;12.064;2022-09-09T05:22:56;15.80;99.90
12053;DHT22;6087;48.982;12.064;2022-09-09T05:25:24;15.80;99.90
12053;DHT22;6087;48.982;12.064;2022-09-09T05:27:51;15.80;99.90
12053;DHT22;6087;48.982;12.064;2022-09-09T05:30:19;15.70;99.90
12053;DHT22;6087;48.982;12.064;2022-09-09T05:32:46;15.80;99.90
12053;DHT22;6087;48.982;12.064;2022-09-09T05:35:14;15.80;99.90
12053;DHT22;6087;48.982;12.064;2022-09-09T05:37:43;15.80;99.90
12053;DHT22;6087;48.982;12.064;2022-09-09T05:40:11;15.80;99.90
12053;DHT22;6087;48.982;12.064;2022-09-09T05:42:38;15.80;99.90
12053;DHT22;6087;48.982;12.064;2022-09-09T05:45:06;15.80;99.90
12053;DHT22;6087;48.982;12.064;2022-09-09T05:47:34;15.80;99.90
12053;DHT22;6087;48.982;12.064;2022-09-09T05:50:03;15.80;99.90
12053;DHT22;6087;48.982;12.064;2022-09-09T05:52:30;15.90;99.90
12053;DHT22;6087;48.982;12.064;2022-09-09T05:54:58;15.80;99.90
12053;DHT22;6087;48.982;12.064;2022-09-09T05:57:25;15.90;99.90
12053;DHT22;6087;48.982;12.064;2022-09-09T05:59:52;15.90;99.90
12053;DHT22;6087;48.982;12.064;2022-09-09T06:02:20;15.80;99.90
12053;DHT22;6087;48.982;12.064;2022-09-09T06:04:47;15.80;99.90
12053;DHT22;6087;48.982;12.064;2022-09-09T06:07:15;15.90;99.90
12053;DHT22;6087;48.982;12.064;2022-09-09T06:09:42;15.90;99.90
12053;DHT22;6087;48.982;12.064;2022-09-09T06:12:10;15.90;99.90
12053;DHT22;6087;48.982;12.064;2022-09-09T06:14:37;15.90;99.90
12053;DHT22;6087;48.982;12.064;2022-09-09T06:17:04;15.90;99.90
12053;DHT22;6087;48.982;12.064;2022-09-09T06:19:32;15.90;99.90
12053;DHT22;6087;48.982;12.064;2022-09-09T06:22:01;15.90;99.90
12053;DHT22;6087;48.982;12.064;2022-09-09T06:24:29;15.90;99.90
12053;DHT22;6087;48.982;12.064;2022-09-09T06:26:55;15.90;99.90
12053;DHT22;6087;48.982;12.064;2022-09-09T06:29:24;15.90;99.90
12053;DHT22;6087;48.982;12.064;2022-09-09T06:31:51;15.90;99.90
12053;DHT22;6087;48.982;12.064;2022-09-09T06:34:18;16.00;99.90
12053;DHT22;6087;48.982;12.064;2022-09-09T06:36:45;16.00;99.90
12053;DHT22;6087;48.982;12.064;2022-09-09T06:39:12;16.00;99.90
12053;DHT22;6087;48.982;12.064;2022-09-09T06:41:41;16.10;99.90
12053;DHT22;6087;48.982;12.064;2022-09-09T06:44:09;16.10;99.90
12053;DHT22;6087;48.982;12.064;2022-09-09T06:46:38;16.10;99.90
12053;DHT22;6087;48.982;12.064;2022-09-09T06:49:06;16.10;99.90
12053;DHT22;6087;48.982;12.064;2022-09-09T06:51:35;16.10;99.90
12053;DHT22;6087;48.982;12.064;2022-09-09T06:54:03;16.10;99.90
12053;DHT22;6087;48.982;12.064;2022-09-09T06:56:33;16.10;99.90
12053;DHT22;6087;48.982;12.064;2022-09-09T06:59:02;16.20;99.90
12053;DHT22;6087;48.982;12.064;2022-09-09T07:01:31;16.20;99.90
12053;DHT22;6087;48.982;12.064;2022-09-09T07:04:00;16.20;99.90
12053;DHT22;6087;48.982;12.064;2022-09-09T07:06:30;16.30;99.90
12053;DHT22;6087;48.982;12.064;2022-09-09T07:08:59;16.30;99.90
12053;DHT22;6087;48.982;12.064;2022-09-09T07:11:28;16.30;99.90
12053;DHT22;6087;48.982;12.064;2022-09-09T07:13:56;16.30;99.90
12053;DHT22;6087;48.982;12.064;2022-09-09T07:16:24;16.30;99.90
12053;DHT22;6087;48.982;12.064;2022-09-09T07:18:53;16.30;99.90
12053;DHT22;6087;48.982;12.064;2022-09-09T07:21:25;16.30;99.90
12053;DHT22;6087;48.982;12.064;2022-09-09T07:23:53;16.30;99.90
12053;DHT22;6087;48.982;12.064;2022-09-09T07:26:22;16.30;99.90
12053;DHT22;6087;48.982;12.064;2022-09-09T07:28:49;16.30;99.90
12053;DHT22;6087;48.982;12.064;2022-09-09T07:31:17;16.30;99.90
12053;DHT22;6087;48.982;12.064;2022-09-09T07:33:46;16.30;99.90
12053;DHT22;6087;48.982;12.064;2022-09-09T07:36:15;16.40;99.90
12053;DHT22;6087;48.982;12.064;2022-09-09T07:38:45;16.40;99.90
12053;DHT22;6087;48.982;12.064;2022-09-09T07:41:14;16.30;99.90
12053;DHT22;6087;48.982;12.064;2022-09-09T07:43:43;16.30;99.90
12053;DHT22;6087;48.982;12.064;2022-09-09T07:46:12;16.20;99.90
12053;DHT22;6087;48.982;12.064;2022-09-09T07:48:43;16.20;99.90
12053;DHT22;6087;48.982;12.064;2022-09-09T07:51:12;16.10;99.90
12053;DHT22;6087;48.982;12.064;2022-09-09T07:53:40;16.10;99.90
12053;DHT22;6087;48.982;12.064;2022-09-09T07:56:11;16.10;99.90
12053;DHT22;6087;48.982;12.064;2022-09-09T07:58:40;16.10;99.90
12053;DHT22;6087;48.982;12.064;2022-09-09T08:01:09;16.00;99.90
12053;DHT22;6087;48.982;12.064;2022-09-09T08:03:36;16.10;99.90
12053;DHT22;6087;48.982;12.064;2022-09-09T08:06:06;16.00;99.90
12053;DHT22;6087;48.982;12.064;2022-09-09T08:08:34;15.90;99.90
12053;DHT22;6087;48.982;12.064;2022-09-09T08:11:05;15.80;99.90
12053;DHT22;6087;48.982;12.064;2022-09-09T08:13:35;15.70;99.90
12053;DHT22;6087;48.982;12.064;2022-09-09T08:16:07;15.70;99.90
12053;DHT22;6087;48.982;12.064;2022-09-09T08:18:34;15.70;99.90
12053;DHT22;6087;48.982;12.064;2022-09-09T08:21:06;15.60;99.90
12053;DHT22;6087;48.982;12.064;2022-09-09T08:23:34;15.60;99.90
12053;DHT22;6087;48.982;12.064;2022-09-09T08:26:06;15.50;99.90
12053;DHT22;6087;48.982;12.064;2022-09-09T08:28:36;15.50;99.90
12053;DHT22;6087;48.982;12.064;2022-09-09T08:31:07;15.60;99.90
12053;DHT22;6087;48.982;12.064;2022-09-09T08:33:34;15.70;99.90
12053;DHT22;6087;48.982;12.064;2022-09-09T08:36:04;15.70;99.90
12053;DHT22;6087;48.982;12.064;2022-09-09T08:38:32;15.70;99.90
12053;DHT22;6087;48.982;12.064;2022-09-09T08:43:50;15.80;99.90
12053;DHT22;6087;48.982;12.064;2022-09-09T08:46:31;15.90;99.90
12053;DHT22;6087;48.982;12.064;2022-09-09T08:49:06;15.90;99.90
12053;DHT22;6087;48.982;12.064;2022-09-09T08:51:38;15.90;99.90
12053;DHT22;6087;48.982;12.064;2022-09-09T08:54:05;15.90;99.90
12053;DHT22;6087;48.982;12.064;2022-09-09T08:56:32;15.90;99.90
12053;DHT22;6087;48.982;12.064;2022-09-09T08:59:02;15.90;99.90
12053;DHT22;6087;48.982;12.064;2022-09-09T09:01:40;15.90;99.90
12053;DHT22;6087;48.982;12.064;2022-09-09T09:04:19;16.00;99.90
12053;DHT22;6087;48.982;12.064;2022-09-09T09:06:54;16.10;99.90
12053;DHT22;6087;48.982;12.064;2022-09-09T09:09:32;16.10;99.90
12053;DHT22;6087;48.982;12.064;2022-09-09T09:12:02;16.20;99.90
12053;DHT22;6087;48.982;12.064;2022-09-09T09:14:37;16.30;99.90
12053;DHT22;6087;48.982;12.064;2022-09-09T09:17:09;16.30;99.90
12053;DHT22;6087;48.982;12.064;2022-09-09T09:19:40;16.40;99.90
12053;DHT22;6087;48.982;12.064;2022-09-09T09:22:15;16.40;99.90
12053;DHT22;6087;48.982;12.064;2022-09-09T09:24:51;16.50;99.90
12053;DHT22;6087;48.982;12.064;2022-09-09T09:27:27;16.60;99.90
12053;DHT22;6087;48.982;12.064;2022-09-09T09:30:00;16.60;99.90
12053;DHT22;6087;48.982;12.064;2022-09-09T09:32:33;16.70;99.90
12053;DHT22;6087;48.982;12.064;2022-09-09T09:35:02;16.80;99.90
12053;DHT22;6087;48.982;12.064;2022-09-09T09:37:34;16.80;99.90
12053;DHT22;6087;48.982;12.064;2022-09-09T09:40:10;16.90;99.90
12053;DHT22;6087;48.982;12.064;2022-09-09T09:42:46;17.10;99.90
12053;DHT22;6087;48.982;12.064;2022-09-09T09:45:29;17.10;99.90
12053;DHT22;6087;48.982;12.064;2022-09-09T09:47:59;17.10;99.90
12053;DHT22;6087;48.982;12.064;2022-09-09T09:50:27;17.20;99.90
12053;DHT22;6087;48.982;12.064;2022-09-09T09:52:56;17.20;99.90
12053;DHT22;6087;48.982;12.064;2022-09-09T09:55:24;17.20;99.90
12053;DHT22;6087;48.982;12.064;2022-09-09T09:57:53;17.30;99.90
12053;DHT22;6087;48.982;12.064;2022-09-09T10:00:24;17.40;99.90
12053;DHT22;6087;48.982;12.064;2022-09-09T10:02:51;17.50;99.90
12053;DHT22;6087;48.982;12.064;2022-09-09T10:05:20;17.60;99.90
12053;DHT22;6087;48.982;12.064;2022-09-09T10:08:01;17.70;99.90
12053;DHT22;6087;48.982;12.064;2022-09-09T10:10:39;17.80;99.90
12053;DHT22;6087;48.982;12.064;2022-09-09T10:13:14;17.90;99.90
12053;DHT22;6087;48.982;12.064;2022-09-09T10:15:50;18.00;99.90
12053;DHT22;6087;48.982;12.064;2022-09-09T10:18:40;18.10;99.90
12053;DHT22;6087;48.982;12.064;2022-09-09T10:21:20;18.30;99.90
12053;DHT22;6087;48.982;12.064;2022-09-09T10:24:09;18.30;99.90
12053;DHT22;6087;48.982;12.064;2022-09-09T10:26:44;18.40;99.90
12053;DHT22;6087;48.982;12.064;2022-09-09T10:29:38;18.40;99.90
12053;DHT22;6087;48.982;12.064;2022-09-09T10:32:26;18.40;99.90
12053;DHT22;6087;48.982;12.064;2022-09-09T10:34:58;18.50;99.90
12053;DHT22;6087;48.982;12.064;2022-09-09T10:37:45;18.50;99.90
12053;DHT22;6087;48.982;12.064;2022-09-09T10:40:24;18.50;99.90
12053;DHT22;6087;48.982;12.064;2022-09-09T10:43:02;18.60;99.90
12053;DHT22;6087;48.982;12.064;2022-09-09T10:45:37;18.60;99.90
12053;DHT22;6087;48.982;12.064;2022-09-09T10:48:30;18.60;99.90
12053;DHT22;6087;48.982;12.064;2022-09-09T10:51:08;18.70;99.90
12053;DHT22;6087;48.982;12.064;2022-09-09T10:53:48;18.70;99.90
12053;DHT22;6087;48.982;12.064;2022-09-09T10:56:20;18.80;99.90
12053;DHT22;6087;48.982;12.064;2022-09-09T10:58:51;18.90;99.90
12053;DHT22;6087;48.982;12.064;2022-09-09T11:01:21;19.00;99.90
12053;DHT22;6087;48.982;12.064;2022-09-09T11:03:54;19.00;99.90
12053;DHT22;6087;48.982;12.064;2022-09-09T11:06:26;19.10;99.90
12053;DHT22;6087;48.982;12.064;2022-09-09T11:08:55;19.20;99.90
12053;DHT22;6087;48.982;12.064;2022-09-09T11:11:29;19.20;99.90
12053;DHT22;6087;48.982;12.064;2022-09-09T11:14:00;19.20;99.90
12053;DHT22;6087;48.982;12.064;2022-09-09T11:16:30;19.30;99.90
12053;DHT22;6087;48.982;12.064;2022-09-09T11:19:04;19.30;99.90
12053;DHT22;6087;48.982;12.064;2022-09-09T11:21:42;19.40;99.90
12053;DHT22;6087;48.982;12.064;2022-09-09T11:24:15;19.40;99.90
12053;DHT22;6087;48.982;12.064;2022-09-09T11:26:47;19.50;99.90
12053;DHT22;6087;48.982;12.064;2022-09-09T11:29:40;19.50;99.90
12053;DHT22;6087;48.982;12.064;2022-09-09T11:32:25;19.50;99.90
12053;DHT22;6087;48.982;12.064;2022-09-09T11:35:17;19.60;99.90
12053;DHT22;6087;48.982;12.064;2022-09-09T11:38:11;19.70;99.90
12053;DHT22;6087;48.982;12.064;2022-09-09T11:40:43;19.70;99.90
12053;DHT22;6087;48.982;12.064;2022-09-09T11:43:14;19.90;99.90
12053;DHT22;6087;48.982;12.064;2022-09-09T11:45:42;20.00;99.90
12053;DHT22;6087;48.982;12.064;2022-09-09T11:48:23;20.20;99.90
12053;DHT22;6087;48.982;12.064;2022-09-09T11:50:59;20.30;99.90
12053;DHT22;6087;48.982;12.064;2022-09-09T11:53:28;20.40;99.90
12053;DHT22;6087;48.982;12.064;2022-09-09T11:56:12;20.60;99.90
12053;DHT22;6087;48.982;12.064;2022-09-09T11:58:44;20.80;99.90
12053;DHT22;6087;48.982;12.064;2022-09-09T12:01:35;21.00;99.90
12053;DHT22;6087;48.982;12.064;2022-09-09T12:07:02;21.40;99.90
12053;DHT22;6087;48.982;12.064;2022-09-09T12:09:43;21.50;99.90
12053;DHT22;6087;48.982;12.064;2022-09-09T12:12:29;21.50;99.90
12053;DHT22;6087;48.982;12.064;2022-09-09T12:14:59;21.50;99.90
12053;DHT22;6087;48.982;12.064;2022-09-09T12:17:28;21.40;99.90
12053;DHT22;6087;48.982;12.064;2022-09-09T12:20:08;21.40;99.90
12053;DHT22;6087;48.982;12.064;2022-09-09T12:22:46;21.40;99.90
12053;DHT22;6087;48.982;12.064;2022-09-09T12:25:21;21.30;99.90
12053;DHT22;6087;48.982;12.064;2022-09-09T12:28:02;21.20;99.90
12053;DHT22;6087;48.982;12.064;2022-09-09T12:30:36;21.10;99.90
12053;DHT22;6087;48.982;12.064;2022-09-09T12:33:11;21.00;99.90
12053;DHT22;6087;48.982;12.064;2022-09-09T12:35:39;20.80;99.90
12053;DHT22;6087;48.982;12.064;2022-09-09T12:38:13;20.70;99.90
12053;DHT22;6087;48.982;12.064;2022-09-09T12:40:55;20.60;99.90
12053;DHT22;6087;48.982;12.064;2022-09-09T12:43:24;20.50;99.90
12053;DHT22;6087;48.982;12.064;2022-09-09T12:45:53;20.50;99.90
12053;DHT22;6087;48.982;12.064;2022-09-09T12:48:31;20.50;99.90
12053;DHT22;6087;48.982;12.064;2022-09-09T12:50:59;20.50;99.90
12053;DHT22;6087;48.982;12.064;2022-09-09T12:53:31;20.50;99.90
12053;DHT22;6087;48.982;12.064;2022-09-09T12:56:01;20.50;99.90
12053;DHT22;6087;48.982;12.064;2022-09-09T12:58:30;20.50;99.90
12053;DHT22;6087;48.982;12.064;2022-09-09T13:00:59;20.40;99.90
12053;DHT22;6087;48.982;12.064;2022-09-09T13:03:26;20.40;99.90
12053;DHT22;6087;48.982;12.064;2022-09-09T13:05:58;20.30;99.90
12053;DHT22;6087;48.982;12.064;2022-09-09T13:08:27;20.30;99.90
12053;DHT22;6087;48.982;12.064;2022-09-09T13:10:56;20.30;99.90
12053;DHT22;6087;48.982;12.064;2022-09-09T13:13:27;20.40;99.90
12053;DHT22;6087;48.982;12.064;2022-09-09T13:15:57;20.30;99.90
12053;DHT22;6087;48.982;12.064;2022-09-09T13:18:28;20.30;99.90
12053;DHT22;6087;48.982;12.064;2022-09-09T13:20:56;20.30;99.90
12053;DHT22;6087;48.982;12.064;2022-09-09T13:23:29;20.40;99.90
12053;DHT22;6087;48.982;12.064;2022-09-09T13:25:58;20.40;99.90
12053;DHT22;6087;48.982;12.064;2022-09-09T13:28:27;20.40;99.90
12053;DHT22;6087;48.982;12.064;2022-09-09T13:30:57;20.40;99.90
12053;DHT22;6087;48.982;12.064;2022-09-09T13:33:30;20.70;99.90
12053;DHT22;6087;48.982;12.064;2022-09-09T13:36:00;20.90;99.90
12053;DHT22;6087;48.982;12.064;2022-09-09T13:38:32;21.00;99.90
12053;DHT22;6087;48.982;12.064;2022-09-09T13:41:01;21.10;99.90
12053;DHT22;6087;48.982;12.064;2022-09-09T13:43:31;21.20;99.90
12053;DHT22;6087;48.982;12.064;2022-09-09T13:46:01;21.40;99.90
12053;DHT22;6087;48.982;12.064;2022-09-09T13:48:29;21.50;99.90
12053;DHT22;6087;48.982;12.064;2022-09-09T13:50:59;21.40;99.90
12053;DHT22;6087;48.982;12.064;2022-09-09T13:53:28;21.20;99.90
12053;DHT22;6087;48.982;12.064;2022-09-09T13:55:56;21.20;99.90
12053;DHT22;6087;48.982;12.064;2022-09-09T13:58:24;21.20;99.90
12053;DHT22;6087;48.982;12.064;2022-09-09T14:00:51;21.40;99.90
12053;DHT22;6087;48.982;12.064;2022-09-09T14:03:19;21.60;99.90
12053;DHT22;6087;48.982;12.064;2022-09-09T14:05:48;21.60;99.90
12053;DHT22;6087;48.982;12.064;2022-09-09T14:08:23;21.70;99.90
12053;DHT22;6087;48.982;12.064;2022-09-09T14:10:52;21.80;99.90
12053;DHT22;6087;48.982;12.064;2022-09-09T14:13:25;21.80;99.90
12053;DHT22;6087;48.982;12.064;2022-09-09T14:15:52;21.80;99.90
12053;DHT22;6087;48.982;12.064;2022-09-09T14:18:19;21.80;99.90
12053;DHT22;6087;48.982;12.064;2022-09-09T14:20:48;22.00;99.90
12053;DHT22;6087;48.982;12.064;2022-09-09T14:23:16;21.90;99.10
12053;DHT22;6087;48.982;12.064;2022-09-09T14:25:44;21.90;99.60
12053;DHT22;6087;48.982;12.064;2022-09-09T14:28:13;21.70;99.30
12053;DHT22;6087;48.982;12.064;2022-09-09T14:30:42;21.30;99.80
12053;DHT22;6087;48.982;12.064;2022-09-09T14:33:11;21.10;99.90
12053;DHT22;6087;48.982;12.064;2022-09-09T14:35:39;21.20;99.90
12053;DHT22;6087;48.982;12.064;2022-09-09T14:38:06;21.10;99.90
12053;DHT22;6087;48.982;12.064;2022-09-09T14:40:35;21.20;99.90
12053;DHT22;6087;48.982;12.064;2022-09-09T14:43:03;21.20;99.90
12053;DHT22;6087;48.982;12.064;2022-09-09T14:45:32;21.10;99.90
12053;DHT22;6087;48.982;12.064;2022-09-09T14:47:59;21.00;99.90
12053;DHT22;6087;48.982;12.064;2022-09-09T14:50:26;21.00;99.90
12053;DHT22;6087;48.982;12.064;2022-09-09T14:52:54;20.90;99.90
12053;DHT22;6087;48.982;12.064;2022-09-09T14:55:21;20.80;99.90
12053;DHT22;6087;48.982;12.064;2022-09-09T14:57:47;20.80;99.90
12053;DHT22;6087;48.982;12.064;2022-09-09T15:00:15;20.70;99.90
12053;DHT22;6087;48.982;12.064;2022-09-09T15:02:44;20.70;99.90
12053;DHT22;6087;48.982;12.064;2022-09-09T15:05:10;20.70;99.90
12053;DHT22;6087;48.982;12.064;2022-09-09T15:07:37;20.60;99.90
12053;DHT22;6087;48.982;12.064;2022-09-09T15:10:05;20.60;99.90
12053;DHT22;6087;48.982;12.064;2022-09-09T15:12:32;20.40;99.90
12053;DHT22;6087;48.982;12.064;2022-09-09T15:15:01;20.20;99.90
12053;DHT22;6087;48.982;12.064;2022-09-09T15:17:28;20.20;99.90
12053;DHT22;6087;48.982;12.064;2022-09-09T15:19:56;20.20;99.90
12053;DHT22;6087;48.982;12.064;2022-09-09T15:22:23;20.20;99.90
12053;DHT22;6087;48.982;12.064;2022-09-09T15:24:51;20.10;99.90
12053;DHT22;6087;48.982;12.064;2022-09-09T15:27:18;20.00;99.90
12053;DHT22;6087;48.982;12.064;2022-09-09T15:29:45;19.90;99.90
12053;DHT22;6087;48.982;12.064;2022-09-09T15:32:13;19.80;99.90
12053;DHT22;6087;48.982;12.064;2022-09-09T15:34:40;19.80;99.90
12053;DHT22;6087;48.982;12.064;2022-09-09T15:37:11;19.80;99.90
12053;DHT22;6087;48.982;12.064;2022-09-09T15:39:39;19.70;99.90
12053;DHT22;6087;48.982;12.064;2022-09-09T15:42:07;19.70;99.90
12053;DHT22;6087;48.982;12.064;2022-09-09T15:44:39;19.70;99.90
12053;DHT22;6087;48.982;12.064;2022-09-09T15:47:07;19.70;99.90
12053;DHT22;6087;48.982;12.064;2022-09-09T15:49:37;19.70;99.90
12053;DHT22;6087;48.982;12.064;2022-09-09T15:52:04;19.70;99.90
12053;DHT22;6087;48.982;12.064;2022-09-09T15:54:34;19.60;99.90
12053;DHT22;6087;48.982;12.064;2022-09-09T15:57:04;19.70;99.90
12053;DHT22;6087;48.982;12.064;2022-09-09T15:59:32;19.60;99.90
12053;DHT22;6087;48.982;12.064;2022-09-09T16:01:59;19.60;99.90